sensor_id;sensor_type;location;lat;lon;timestamp;temperature;humidity
18153;DHT22;9202;51.578;7.734;2023-08-30T00:01:39;15.30;99.90
18153;DHT22;9202;51.578;7.734;2023-08-30T00:03:42;15.20;99.90
18153;DHT22;9202;51.578;7.734;2023-08-30T00:05:45;15.30;99.90
18153;DHT22;9202;51.578;7.734;2023-08-30T00:07:47;15.30;99.90
18153;DHT22;9202;51.578;7.734;2023-08-30T00:09:51;15.20;99.90
18153;DHT22;9202;51.578;7.734;2023-08-30T00:11:53;15.20;99.90
18153;DHT22;9202;51.578;7.734;2023-08-30T00:14:02;15.30;99.90
18153;DHT22;9202;51.578;7.734;2023-08-30T00:16:04;15.20;99.90
18153;DHT22;9202;51.578;7.734;2023-08-30T00:18:07;15.30;99.90
18153;DHT22;9202;51.578;7.734;2023-08-30T00:20:11;15.20;99.90
18153;DHT22;9202;51.578;7.734;2023-08-30T00:22:14;15.20;99.90
18153;DHT22;9202;51.578;7.734;2023-08-30T00:24:18;15.20;99.90
18153;DHT22;9202;51.578;7.734;2023-08-30T00:26:20;15.10;99.90
18153;DHT22;9202;51.578;7.734;2023-08-30T00:28:23;15.20;99.90
18153;DHT22;9202;51.578;7.734;2023-08-30T00:30:26;15.30;99.90
18153;DHT22;9202;51.578;7.734;2023-08-30T00:32:30;15.30;99.90
18153;DHT22;9202;51.578;7.734;2023-08-30T00:34:34;15.30;99.90
18153;DHT22;9202;51.578;7.734;2023-08-30T00:36:36;15.30;99.90
18153;DHT22;9202;51.578;7.734;2023-08-30T00:38:39;15.30;99.90
18153;DHT22;9202;51.578;7.734;2023-08-30T00:40:43;15.20;99.90
18153;DHT22;9202;51.578;7.734;2023-08-30T00:42:46;15.30;99.90
18153;DHT22;9202;51.578;7.734;2023-08-30T00:44:50;15.20;99.90
18153;DHT22;9202;51.578;7.734;2023-08-30T00:46:53;13.50;99.90
18153;DHT22;9202;51.578;7.734;2023-08-30T00:48:56;15.20;99.90
18153;DHT22;9202;51.578;7.734;2023-08-30T00:50:59;15.10;99.90
18153;DHT22;9202;51.578;7.734;2023-08-30T00:53:03;15.20;99.90
18153;DHT22;9202;51.578;7.734;2023-08-30T00:55:08;15.10;99.90
18153;DHT22;9202;51.578;7.734;2023-08-30T00:57:12;15.10;99.90
18153;DHT22;9202;51.578;7.734;2023-08-30T00:59:15;15.00;99.90
18153;DHT22;9202;51.578;7.734;2023-08-30T01:01:18;13.90;99.90
18153;DHT22;9202;51.578;7.734;2023-08-30T01:03:20;14.90;99.90
18153;DHT22;9202;51.578;7.734;2023-08-30T01:05:24;15.00;99.90
18153;DHT22;9202;51.578;7.734;2023-08-30T01:07:27;15.00;99.90
18153;DHT22;9202;51.578;7.734;2023-08-30T01:09:30;15.20;99.90
18153;DHT22;9202;51.578;7.734;2023-08-30T01:11:36;14.90;99.90
18153;DHT22;9202;51.578;7.734;2023-08-30T01:13:42;14.90;99.90
18153;DHT22;9202;51.578;7.734;2023-08-30T01:15:46;15.00;99.90
18153;DHT22;9202;51.578;7.734;2023-08-30T01:17:50;14.90;99.90
18153;DHT22;9202;51.578;7.734;2023-08-30T01:19:55;15.00;99.90
18153;DHT22;9202;51.578;7.734;2023-08-30T01:22:01;14.90;99.90
18153;DHT22;9202;51.578;7.734;2023-08-30T01:24:07;15.00;99.90
18153;DHT22;9202;51.578;7.734;2023-08-30T01:26:11;14.80;99.90
18153;DHT22;9202;51.578;7.734;2023-08-30T01:30:33;14.80;99.90
18153;DHT22;9202;51.578;7.734;2023-08-30T01:32:37;14.80;99.90
18153;DHT22;9202;51.578;7.734;2023-08-30T01:34:41;14.80;99.90
18153;DHT22;9202;51.578;7.734;2023-08-30T01:36:45;14.80;99.90
18153;DHT22;9202;51.578;7.734;2023-08-30T01:38:48;14.70;99.90
18153;DHT22;9202;51.578;7.734;2023-08-30T01:40:51;14.70;99.90
18153;DHT22;9202;51.578;7.734;2023-08-30T01:42:54;14.70;99.90
18153;DHT22;9202;51.578;7.734;2023-08-30T01:44:58;14.70;99.90
18153;DHT22;9202;51.578;7.734;2023-08-30T01:47:02;14.60;99.90
18153;DHT22;9202;51.578;7.734;2023-08-30T01:49:05;14.50;99.90
18153;DHT22;9202;51.578;7.734;2023-08-30T01:51:09;14.50;99.90
18153;DHT22;9202;51.578;7.734;2023-08-30T01:53:12;14.40;99.90
18153;DHT22;9202;51.578;7.734;2023-08-30T01:55:16;14.30;99.90
18153;DHT22;9202;51.578;7.734;2023-08-30T01:57:20;14.20;99.90
18153;DHT22;9202;51.578;7.734;2023-08-30T01:59:24;14.10;99.90
18153;DHT22;9202;51.578;7.734;2023-08-30T02:01:26;14.10;99.90
18153;DHT22;9202;51.578;7.734;2023-08-30T02:03:29;14.10;99.90
18153;DHT22;9202;51.578;7.734;2023-08-30T02:05:32;14.10;99.90
18153;DHT22;9202;51.578;7.734;2023-08-30T02:07:36;14.10;99.90
18153;DHT22;9202;51.578;7.734;2023-08-30T02:09:42;14.20;99.90
18153;DHT22;9202;51.578;7.734;2023-08-30T02:11:45;14.10;99.90
18153;DHT22;9202;51.578;7.734;2023-08-30T02:13:49;14.00;99.90
18153;DHT22;9202;51.578;7.734;2023-08-30T02:15:52;14.00;99.90
18153;DHT22;9202;51.578;7.734;2023-08-30T02:17:57;14.00;99.90
18153;DHT22;9202;51.578;7.734;2023-08-30T02:20:02;14.00;99.90
18153;DHT22;9202;51.578;7.734;2023-08-30T02:22:05;14.00;99.90
18153;DHT22;9202;51.578;7.734;2023-08-30T02:24:08;14.10;99.90
18153;DHT22;9202;51.578;7.734;2023-08-30T02:26:11;14.10;99.90
18153;DHT22;9202;51.578;7.734;2023-08-30T02:28:15;14.10;99.90
18153;DHT22;9202;51.578;7.734;2023-08-30T02:30:18;14.10;99.90
18153;DHT22;9202;51.578;7.734;2023-08-30T02:32:21;14.10;99.90
18153;DHT22;9202;51.578;7.734;2023-08-30T02:34:24;14.00;99.90
18153;DHT22;9202;51.578;7.734;2023-08-30T02:36:27;14.00;99.90
18153;DHT22;9202;51.578;7.734;2023-08-30T02:38:31;14.00;99.90
18153;DHT22;9202;51.578;7.734;2023-08-30T02:40:34;13.90;99.90
18153;DHT22;9202;51.578;7.734;2023-08-30T02:42:37;13.80;99.90
18153;DHT22;9202;51.578;7.734;2023-08-30T02:44:40;13.90;99.90
18153;DHT22;9202;51.578;7.734;2023-08-30T02:46:43;12.80;99.90
18153;DHT22;9202;51.578;7.734;2023-08-30T02:48:46;13.60;99.90
18153;DHT22;9202;51.578;7.734;2023-08-30T02:50:49;13.70;99.90
18153;DHT22;9202;51.578;7.734;2023-08-30T02:52:52;13.70;99.90
18153;DHT22;9202;51.578;7.734;2023-08-30T02:54:55;13.60;99.90
18153;DHT22;9202;51.578;7.734;2023-08-30T02:56:58;13.60;99.90
18153;DHT22;9202;51.578;7.734;2023-08-30T02:59:01;13.60;99.90
18153;DHT22;9202;51.578;7.734;2023-08-30T03:01:03;13.50;99.90
18153;DHT22;9202;51.578;7.734;2023-08-30T03:03:06;13.40;99.90
18153;DHT22;9202;51.578;7.734;2023-08-30T03:05:09;13.40;99.90
18153;DHT22;9202;51.578;7.734;2023-08-30T03:07:14;13.30;99.90
18153;DHT22;9202;51.578;7.734;2023-08-30T03:09:17;13.30;99.90
18153;DHT22;9202;51.578;7.734;2023-08-30T03:11:20;13.20;99.90
18153;DHT22;9202;51.578;7.734;2023-08-30T03:13:24;13.20;99.90
18153;DHT22;9202;51.578;7.734;2023-08-30T03:15:27;13.10;99.90
18153;DHT22;9202;51.578;7.734;2023-08-30T03:17:32;13.10;99.90
18153;DHT22;9202;51.578;7.734;2023-08-30T03:19:36;13.10;99.90
18153;DHT22;9202;51.578;7.734;2023-08-30T03:21:39;13.10;99.90
18153;DHT22;9202;51.578;7.734;2023-08-30T03:23:42;13.00;99.90
18153;DHT22;9202;51.578;7.734;2023-08-30T03:25:45;13.00;99.90
18153;DHT22;9202;51.578;7.734;2023-08-30T03:27:48;13.00;99.90
18153;DHT22;9202;51.578;7.734;2023-08-30T03:29:51;12.90;99.90
18153;DHT22;9202;51.578;7.734;2023-08-30T03:31:54;12.90;99.90
18153;DHT22;9202;51.578;7.734;2023-08-30T03:33:57;12.90;99.90
18153;DHT22;9202;51.578;7.734;2023-08-30T03:36:00;12.90;99.90
18153;DHT22;9202;51.578;7.734;2023-08-30T03:38:03;12.90;99.90
18153;DHT22;9202;51.578;7.734;2023-08-30T03:40:07;12.80;99.90
18153;DHT22;9202;51.578;7.734;2023-08-30T03:42:11;12.80;99.90
18153;DHT22;9202;51.578;7.734;2023-08-30T03:44:14;12.80;99.90
18153;DHT22;9202;51.578;7.734;2023-08-30T03:46:20;12.80;99.90
18153;DHT22;9202;51.578;7.734;2023-08-30T03:48:23;12.80;99.90
18153;DHT22;9202;51.578;7.734;2023-08-30T03:50:26;12.80;99.90
18153;DHT22;9202;51.578;7.734;2023-08-30T03:52:29;12.80;99.90
18153;DHT22;9202;51.578;7.734;2023-08-30T03:54:32;12.80;99.90
18153;DHT22;9202;51.578;7.734;2023-08-30T03:56:36;12.80;99.90
18153;DHT22;9202;51.578;7.734;2023-08-30T03:58:40;12.60;99.90
18153;DHT22;9202;51.578;7.734;2023-08-30T04:00:43;12.70;99.90
18153;DHT22;9202;51.578;7.734;2023-08-30T04:02:46;12.60;99.90
18153;DHT22;9202;51.578;7.734;2023-08-30T04:04:49;12.60;99.90
18153;DHT22;9202;51.578;7.734;2023-08-30T04:06:52;12.60;99.90
18153;DHT22;9202;51.578;7.734;2023-08-30T04:08:55;12.50;99.90
18153;DHT22;9202;51.578;7.734;2023-08-30T04:10:58;12.50;99.90
18153;DHT22;9202;51.578;7.734;2023-08-30T04:13:01;12.50;99.90
18153;DHT22;9202;51.578;7.734;2023-08-30T04:15:04;12.40;99.90
18153;DHT22;9202;51.578;7.734;2023-08-30T04:17:07;12.50;99.90
18153;DHT22;9202;51.578;7.734;2023-08-30T04:19:10;12.40;99.90
18153;DHT22;9202;51.578;7.734;2023-08-30T04:21:14;12.40;99.90
18153;DHT22;9202;51.578;7.734;2023-08-30T04:23:17;12.40;99.90
18153;DHT22;9202;51.578;7.734;2023-08-30T04:25:19;12.40;99.90
18153;DHT22;9202;51.578;7.734;2023-08-30T04:27:24;12.50;99.90
18153;DHT22;9202;51.578;7.734;2023-08-30T04:29:27;12.50;99.90
18153;DHT22;9202;51.578;7.734;2023-08-30T04:33:45;12.50;99.90
18153;DHT22;9202;51.578;7.734;2023-08-30T04:35:50;12.50;99.90
18153;DHT22;9202;51.578;7.734;2023-08-30T04:37:53;12.50;99.90
18153;DHT22;9202;51.578;7.734;2023-08-30T04:39:56;12.40;99.90
18153;DHT22;9202;51.578;7.734;2023-08-30T04:41:59;12.30;99.90
18153;DHT22;9202;51.578;7.734;2023-08-30T04:44:03;12.20;99.90
18153;DHT22;9202;51.578;7.734;2023-08-30T04:46:05;12.30;99.90
18153;DHT22;9202;51.578;7.734;2023-08-30T04:48:08;12.30;99.90
18153;DHT22;9202;51.578;7.734;2023-08-30T04:50:12;12.20;99.90
18153;DHT22;9202;51.578;7.734;2023-08-30T04:52:15;12.10;99.90
18153;DHT22;9202;51.578;7.734;2023-08-30T04:54:17;12.20;99.90
18153;DHT22;9202;51.578;7.734;2023-08-30T04:56:21;12.20;99.90
18153;DHT22;9202;51.578;7.734;2023-08-30T04:58:24;12.20;99.90
18153;DHT22;9202;51.578;7.734;2023-08-30T05:00:29;12.10;99.90
18153;DHT22;9202;51.578;7.734;2023-08-30T05:02:33;12.10;99.90
18153;DHT22;9202;51.578;7.734;2023-08-30T05:04:38;12.10;99.90
18153;DHT22;9202;51.578;7.734;2023-08-30T05:06:41;12.20;99.90
18153;DHT22;9202;51.578;7.734;2023-08-30T05:08:45;12.20;99.90
18153;DHT22;9202;51.578;7.734;2023-08-30T05:10:48;12.10;99.90
18153;DHT22;9202;51.578;7.734;2023-08-30T05:12:52;12.10;99.90
18153;DHT22;9202;51.578;7.734;2023-08-30T05:14:55;12.10;99.90
18153;DHT22;9202;51.578;7.734;2023-08-30T05:16:59;12.10;99.90
18153;DHT22;9202;51.578;7.734;2023-08-30T05:19:02;12.10;99.90
18153;DHT22;9202;51.578;7.734;2023-08-30T05:21:05;12.10;99.90
18153;DHT22;9202;51.578;7.734;2023-08-30T05:23:08;12.10;99.90
18153;DHT22;9202;51.578;7.734;2023-08-30T05:25:10;12.20;99.90
18153;DHT22;9202;51.578;7.734;2023-08-30T05:27:14;12.20;99.90
18153;DHT22;9202;51.578;7.734;2023-08-30T05:29:18;12.20;99.90
18153;DHT22;9202;51.578;7.734;2023-08-30T05:31:22;12.30;99.90
18153;DHT22;9202;51.578;7.734;2023-08-30T05:33:27;12.30;99.90
18153;DHT22;9202;51.578;7.734;2023-08-30T05:35:31;12.40;99.90
18153;DHT22;9202;51.578;7.734;2023-08-30T05:37:36;12.40;99.90
18153;DHT22;9202;51.578;7.734;2023-08-30T05:39:41;12.40;99.90
18153;DHT22;9202;51.578;7.734;2023-08-30T05:41:44;12.40;99.90
18153;DHT22;9202;51.578;7.734;2023-08-30T05:46:02;12.50;99.90
18153;DHT22;9202;51.578;7.734;2023-08-30T05:48:06;12.50;99.90
18153;DHT22;9202;51.578;7.734;2023-08-30T05:50:09;12.60;99.90
18153;DHT22;9202;51.578;7.734;2023-08-30T05:52:14;12.60;99.90
18153;DHT22;9202;51.578;7.734;2023-08-30T05:54:18;12.50;99.90
18153;DHT22;9202;51.578;7.734;2023-08-30T05:56:21;12.50;99.90
18153;DHT22;9202;51.578;7.734;2023-08-30T05:58:24;12.50;99.90
18153;DHT22;9202;51.578;7.734;2023-08-30T06:00:27;12.50;99.90
18153;DHT22;9202;51.578;7.734;2023-08-30T06:02:30;12.60;99.90
18153;DHT22;9202;51.578;7.734;2023-08-30T06:04:33;12.50;99.90
18153;DHT22;9202;51.578;7.734;2023-08-30T06:06:36;12.50;99.90
18153;DHT22;9202;51.578;7.734;2023-08-30T06:08:39;12.50;99.90
18153;DHT22;9202;51.578;7.734;2023-08-30T06:10:49;12.50;99.90
18153;DHT22;9202;51.578;7.734;2023-08-30T06:12:52;12.60;99.90
18153;DHT22;9202;51.578;7.734;2023-08-30T06:14:55;12.70;99.90
18153;DHT22;9202;51.578;7.734;2023-08-30T06:16:58;12.70;99.90
18153;DHT22;9202;51.578;7.734;2023-08-30T06:19:01;12.80;99.90
18153;DHT22;9202;51.578;7.734;2023-08-30T06:21:04;12.80;99.90
18153;DHT22;9202;51.578;7.734;2023-08-30T06:23:07;12.90;99.90
18153;DHT22;9202;51.578;7.734;2023-08-30T06:25:10;12.90;99.90
18153;DHT22;9202;51.578;7.734;2023-08-30T06:27:13;13.00;99.90
18153;DHT22;9202;51.578;7.734;2023-08-30T06:29:17;13.10;99.90
18153;DHT22;9202;51.578;7.734;2023-08-30T06:31:21;13.10;99.90
18153;DHT22;9202;51.578;7.734;2023-08-30T06:33:24;13.20;99.90
18153;DHT22;9202;51.578;7.734;2023-08-30T06:35:27;12.10;99.90
18153;DHT22;9202;51.578;7.734;2023-08-30T06:37:30;13.30;99.90
18153;DHT22;9202;51.578;7.734;2023-08-30T06:39:33;13.30;99.90
18153;DHT22;9202;51.578;7.734;2023-08-30T06:41:37;13.30;99.90
18153;DHT22;9202;51.578;7.734;2023-08-30T06:43:40;13.30;99.90
18153;DHT22;9202;51.578;7.734;2023-08-30T06:45:43;13.40;99.90
18153;DHT22;9202;51.578;7.734;2023-08-30T06:47:46;13.40;99.90
18153;DHT22;9202;51.578;7.734;2023-08-30T06:49:50;13.40;99.90
18153;DHT22;9202;51.578;7.734;2023-08-30T06:51:53;13.50;99.90
18153;DHT22;9202;51.578;7.734;2023-08-30T06:53:56;13.60;99.90
18153;DHT22;9202;51.578;7.734;2023-08-30T06:56:00;13.60;99.90
18153;DHT22;9202;51.578;7.734;2023-08-30T07:00:22;13.70;99.90
18153;DHT22;9202;51.578;7.734;2023-08-30T07:02:25;12.10;99.90
18153;DHT22;9202;51.578;7.734;2023-08-30T07:04:28;13.90;99.90
18153;DHT22;9202;51.578;7.734;2023-08-30T07:06:31;13.90;99.90
18153;DHT22;9202;51.578;7.734;2023-08-30T07:08:35;14.00;99.90
18153;DHT22;9202;51.578;7.734;2023-08-30T07:10:38;14.10;99.90
18153;DHT22;9202;51.578;7.734;2023-08-30T07:12:41;14.10;99.90
18153;DHT22;9202;51.578;7.734;2023-08-30T07:14:44;14.20;99.90
18153;DHT22;9202;51.578;7.734;2023-08-30T07:16:49;14.20;99.90
18153;DHT22;9202;51.578;7.734;2023-08-30T07:18:52;14.20;99.90
18153;DHT22;9202;51.578;7.734;2023-08-30T07:20:55;14.30;99.90
18153;DHT22;9202;51.578;7.734;2023-08-30T07:22:58;14.40;99.90
18153;DHT22;9202;51.578;7.734;2023-08-30T07:25:01;14.40;99.90
18153;DHT22;9202;51.578;7.734;2023-08-30T07:27:05;14.50;99.90
18153;DHT22;9202;51.578;7.734;2023-08-30T07:29:09;14.60;99.90
18153;DHT22;9202;51.578;7.734;2023-08-30T07:31:14;14.60;99.90
18153;DHT22;9202;51.578;7.734;2023-08-30T07:33:17;14.80;99.90
18153;DHT22;9202;51.578;7.734;2023-08-30T07:35:22;14.90;99.90
18153;DHT22;9202;51.578;7.734;2023-08-30T07:37:25;14.80;99.90
18153;DHT22;9202;51.578;7.734;2023-08-30T07:39:31;14.90;99.90
18153;DHT22;9202;51.578;7.734;2023-08-30T07:41:34;15.10;99.90
18153;DHT22;9202;51.578;7.734;2023-08-30T07:43:37;15.10;99.90
18153;DHT22;9202;51.578;7.734;2023-08-30T07:45:40;15.10;99.90
18153;DHT22;9202;51.578;7.734;2023-08-30T07:47:43;15.30;99.90
18153;DHT22;9202;51.578;7.734;2023-08-30T07:49:45;15.40;99.90
18153;DHT22;9202;51.578;7.734;2023-08-30T07:51:48;15.30;99.90
18153;DHT22;9202;51.578;7.734;2023-08-30T07:53:53;15.60;99.90
18153;DHT22;9202;51.578;7.734;2023-08-30T07:58:11;15.90;99.90
18153;DHT22;9202;51.578;7.734;2023-08-30T08:00:14;16.20;99.90
18153;DHT22;9202;51.578;7.734;2023-08-30T08:02:20;16.10;99.90
18153;DHT22;9202;51.578;7.734;2023-08-30T08:04:23;16.20;99.90
18153;DHT22;9202;51.578;7.734;2023-08-30T08:06:26;16.30;99.90
18153;DHT22;9202;51.578;7.734;2023-08-30T08:08:29;16.30;99.90
18153;DHT22;9202;51.578;7.734;2023-08-30T08:10:32;16.40;99.90
18153;DHT22;9202;51.578;7.734;2023-08-30T08:12:35;16.60;99.90
18153;DHT22;9202;51.578;7.734;2023-08-30T08:14:38;16.60;99.90
18153;DHT22;9202;51.578;7.734;2023-08-30T08:16:41;16.80;99.90
18153;DHT22;9202;51.578;7.734;2023-08-30T08:18:44;16.90;99.90
18153;DHT22;9202;51.578;7.734;2023-08-30T08:20:47;17.10;99.90
18153;DHT22;9202;51.578;7.734;2023-08-30T08:22:50;17.20;99.90
18153;DHT22;9202;51.578;7.734;2023-08-30T08:24:54;17.30;99.90
18153;DHT22;9202;51.578;7.734;2023-08-30T08:27:02;17.40;99.90
18153;DHT22;9202;51.578;7.734;2023-08-30T08:29:05;17.40;99.90
18153;DHT22;9202;51.578;7.734;2023-08-30T08:31:10;17.70;99.90
18153;DHT22;9202;51.578;7.734;2023-08-30T08:33:13;17.60;99.90
18153;DHT22;9202;51.578;7.734;2023-08-30T08:35:16;17.80;99.90
18153;DHT22;9202;51.578;7.734;2023-08-30T08:37:21;17.80;99.90
18153;DHT22;9202;51.578;7.734;2023-08-30T08:39:23;17.90;99.90
18153;DHT22;9202;51.578;7.734;2023-08-30T08:41:27;17.90;99.90
18153;DHT22;9202;51.578;7.734;2023-08-30T08:43:33;18.00;99.90
18153;DHT22;9202;51.578;7.734;2023-08-30T08:45:37;18.20;99.90
18153;DHT22;9202;51.578;7.734;2023-08-30T08:47:42;18.40;99.90
18153;DHT22;9202;51.578;7.734;2023-08-30T08:49:47;18.40;99.90
18153;DHT22;9202;51.578;7.734;2023-08-30T08:51:51;18.50;99.90
18153;DHT22;9202;51.578;7.734;2023-08-30T08:53:55;18.70;99.90
18153;DHT22;9202;51.578;7.734;2023-08-30T08:56:00;18.90;99.90
18153;DHT22;9202;51.578;7.734;2023-08-30T08:58:03;18.90;99.90
18153;DHT22;9202;51.578;7.734;2023-08-30T09:00:08;18.90;99.90
18153;DHT22;9202;51.578;7.734;2023-08-30T09:02:12;19.10;99.90
18153;DHT22;9202;51.578;7.734;2023-08-30T09:04:18;19.20;99.90
18153;DHT22;9202;51.578;7.734;2023-08-30T09:06:22;19.30;99.90
18153;DHT22;9202;51.578;7.734;2023-08-30T09:08:25;19.30;99.90
18153;DHT22;9202;51.578;7.734;2023-08-30T09:10:29;19.40;99.90
18153;DHT22;9202;51.578;7.734;2023-08-30T09:12:34;19.50;99.90
18153;DHT22;9202;51.578;7.734;2023-08-30T09:14:38;19.60;99.90
18153;DHT22;9202;51.578;7.734;2023-08-30T09:16:41;19.40;99.90
18153;DHT22;9202;51.578;7.734;2023-08-30T09:18:56;19.40;99.90
18153;DHT22;9202;51.578;7.734;2023-08-30T09:20:52;19.30;99.90
18153;DHT22;9202;51.578;7.734;2023-08-30T09:22:55;19.70;99.90
18153;DHT22;9202;51.578;7.734;2023-08-30T09:27:15;20.10;99.90
18153;DHT22;9202;51.578;7.734;2023-08-30T09:29:20;19.70;99.90
18153;DHT22;9202;51.578;7.734;2023-08-30T09:31:24;19.40;99.90
18153;DHT22;9202;51.578;7.734;2023-08-30T09:33:34;19.20;99.90
18153;DHT22;9202;51.578;7.734;2023-08-30T09:35:44;18.90;99.90
18153;DHT22;9202;51.578;7.734;2023-08-30T09:37:50;18.80;99.90
18153;DHT22;9202;51.578;7.734;2023-08-30T09:39:53;18.70;99.90
18153;DHT22;9202;51.578;7.734;2023-08-30T09:41:56;18.60;99.90
18153;DHT22;9202;51.578;7.734;2023-08-30T09:44:00;18.60;99.90
18153;DHT22;9202;51.578;7.734;2023-08-30T09:46:07;18.60;99.90
18153;DHT22;9202;51.578;7.734;2023-08-30T09:48:10;18.60;99.90
18153;DHT22;9202;51.578;7.734;2023-08-30T09:50:14;18.60;99.90
18153;DHT22;9202;51.578;7.734;2023-08-30T09:52:18;18.50;99.90
18153;DHT22;9202;51.578;7.734;2023-08-30T09:54:23;18.50;99.90
18153;DHT22;9202;51.578;7.734;2023-08-30T09:56:28;18.70;99.90
18153;DHT22;9202;51.578;7.734;2023-08-30T09:58:32;18.50;99.90
18153;DHT22;9202;51.578;7.734;2023-08-30T10:00:35;18.60;99.90
18153;DHT22;9202;51.578;7.734;2023-08-30T10:02:38;18.90;99.90
18153;DHT22;9202;51.578;7.734;2023-08-30T10:04:45;18.60;99.90
18153;DHT22;9202;51.578;7.734;2023-08-30T10:06:49;18.70;99.90
18153;DHT22;9202;51.578;7.734;2023-08-30T10:08:59;18.90;99.90
18153;DHT22;9202;51.578;7.734;2023-08-30T10:11:13;19.00;99.90
18153;DHT22;9202;51.578;7.734;2023-08-30T10:13:16;19.10;99.90
18153;DHT22;9202;51.578;7.734;2023-08-30T10:15:20;19.30;99.90
18153;DHT22;9202;51.578;7.734;2023-08-30T10:17:25;19.30;99.90
18153;DHT22;9202;51.578;7.734;2023-08-30T10:19:29;19.40;99.90
18153;DHT22;9202;51.578;7.734;2023-08-30T10:21:32;19.40;99.90
18153;DHT22;9202;51.578;7.734;2023-08-30T10:23:37;19.30;99.90
18153;DHT22;9202;51.578;7.734;2023-08-30T10:25:40;19.30;99.90
18153;DHT22;9202;51.578;7.734;2023-08-30T10:27:45;19.20;99.90
18153;DHT22;9202;51.578;7.734;2023-08-30T10:29:49;19.10;99.90
18153;DHT22;9202;51.578;7.734;2023-08-30T10:31:52;19.10;99.90
18153;DHT22;9202;51.578;7.734;2023-08-30T10:33:55;19.10;99.90
18153;DHT22;9202;51.578;7.734;2023-08-30T10:36:04;19.10;99.90
18153;DHT22;9202;51.578;7.734;2023-08-30T10:38:08;19.10;99.90
18153;DHT22;9202;51.578;7.734;2023-08-30T10:40:13;19.00;99.90
18153;DHT22;9202;51.578;7.734;2023-08-30T10:42:16;19.00;99.90
18153;DHT22;9202;51.578;7.734;2023-08-30T10:44:22;17.70;99.90
18153;DHT22;9202;51.578;7.734;2023-08-30T10:46:30;18.90;99.90
18153;DHT22;9202;51.578;7.734;2023-08-30T10:48:37;18.80;99.90
18153;DHT22;9202;51.578;7.734;2023-08-30T10:50:41;18.90;99.90
18153;DHT22;9202;51.578;7.734;2023-08-30T10:52:44;18.90;99.90
18153;DHT22;9202;51.578;7.734;2023-08-30T10:54:49;18.90;99.90
18153;DHT22;9202;51.578;7.734;2023-08-30T10:56:56;18.90;99.90
18153;DHT22;9202;51.578;7.734;2023-08-30T10:58:59;18.80;99.90
18153;DHT22;9202;51.578;7.734;2023-08-30T11:01:01;18.70;99.90
18153;DHT22;9202;51.578;7.734;2023-08-30T11:03:10;18.40;99.90
18153;DHT22;9202;51.578;7.734;2023-08-30T11:05:10;18.40;99.90
18153;DHT22;9202;51.578;7.734;2023-08-30T11:07:13;18.40;99.90
18153;DHT22;9202;51.578;7.734;2023-08-30T11:09:17;18.30;99.90
18153;DHT22;9202;51.578;7.734;2023-08-30T11:11:20;18.30;99.90
18153;DHT22;9202;51.578;7.734;2023-08-30T11:13:23;18.20;99.90
18153;DHT22;9202;51.578;7.734;2023-08-30T11:15:27;18.00;99.90
18153;DHT22;9202;51.578;7.734;2023-08-30T11:19:57;17.60;99.90
18153;DHT22;9202;51.578;7.734;2023-08-30T11:22:08;17.50;99.90
18153;DHT22;9202;51.578;7.734;2023-08-30T11:24:13;17.40;99.90
18153;DHT22;9202;51.578;7.734;2023-08-30T11:26:19;17.40;99.90
18153;DHT22;9202;51.578;7.734;2023-08-30T11:28:23;17.30;99.90
18153;DHT22;9202;51.578;7.734;2023-08-30T11:30:26;17.20;99.90
18153;DHT22;9202;51.578;7.734;2023-08-30T11:32:33;17.10;99.90
18153;DHT22;9202;51.578;7.734;2023-08-30T11:34:41;17.00;99.90
18153;DHT22;9202;51.578;7.734;2023-08-30T11:36:46;16.90;99.90
18153;DHT22;9202;51.578;7.734;2023-08-30T11:38:50;16.70;99.90
18153;DHT22;9202;51.578;7.734;2023-08-30T11:40:54;16.70;99.90
18153;DHT22;9202;51.578;7.734;2023-08-30T11:42:59;16.60;99.90
18153;DHT22;9202;51.578;7.734;2023-08-30T11:45:06;16.50;99.90
18153;DHT22;9202;51.578;7.734;2023-08-30T11:47:09;16.60;99.90
18153;DHT22;9202;51.578;7.734;2023-08-30T11:49:16;16.60;99.90
18153;DHT22;9202;51.578;7.734;2023-08-30T11:51:20;16.60;99.90
18153;DHT22;9202;51.578;7.734;2023-08-30T13:03:33;12.60;99.90
18153;DHT22;9202;51.578;7.734;2023-08-30T13:05:37;13.10;99.90
18153;DHT22;9202;51.578;7.734;2023-08-30T13:07:40;13.60;99.90
18153;DHT22;9202;51.578;7.734;2023-08-30T13:09:44;14.90;99.90
18153;DHT22;9202;51.578;7.734;2023-08-30T13:11:47;15.00;99.90
18153;DHT22;9202;51.578;7.734;2023-08-30T13:13:50;15.00;99.90
18153;DHT22;9202;51.578;7.734;2023-08-30T13:18:09;14.90;99.90
18153;DHT22;9202;51.578;7.734;2023-08-30T13:20:13;15.00;99.90
18153;DHT22;9202;51.578;7.734;2023-08-30T13:22:17;14.80;99.90
18153;DHT22;9202;51.578;7.734;2023-08-30T13:24:20;14.30;99.90
18153;DHT22;9202;51.578;7.734;2023-08-30T13:26:23;15.10;99.90
18153;DHT22;9202;51.578;7.734;2023-08-30T13:28:26;15.20;99.90
18153;DHT22;9202;51.578;7.734;2023-08-30T13:30:29;15.20;99.90
18153;DHT22;9202;51.578;7.734;2023-08-30T13:32:33;15.30;99.90
18153;DHT22;9202;51.578;7.734;2023-08-30T13:34:37;15.30;99.90
18153;DHT22;9202;51.578;7.734;2023-08-30T13:36:42;15.40;99.90
18153;DHT22;9202;51.578;7.734;2023-08-30T13:38:46;15.50;99.90
18153;DHT22;9202;51.578;7.734;2023-08-30T13:40:49;15.40;99.90
18153;DHT22;9202;51.578;7.734;2023-08-30T13:42:52;15.40;99.90
18153;DHT22;9202;51.578;7.734;2023-08-30T13:44:55;15.40;99.90
18153;DHT22;9202;51.578;7.734;2023-08-30T13:46:58;15.40;99.90
18153;DHT22;9202;51.578;7.734;2023-08-30T13:49:01;15.50;99.90
18153;DHT22;9202;51.578;7.734;2023-08-30T13:51:04;15.40;99.90
18153;DHT22;9202;51.578;7.734;2023-08-30T13:53:07;15.40;99.90
18153;DHT22;9202;51.578;7.734;2023-08-30T13:55:10;15.50;99.90
18153;DHT22;9202;51.578;7.734;2023-08-30T13:57:14;15.60;99.90
18153;DHT22;9202;51.578;7.734;2023-08-30T13:59:16;15.70;99.90
18153;DHT22;9202;51.578;7.734;2023-08-30T14:01:19;15.60;99.90
18153;DHT22;9202;51.578;7.734;2023-08-30T14:03:22;15.70;99.90
18153;DHT22;9202;51.578;7.734;2023-08-30T14:05:25;15.50;99.90
18153;DHT22;9202;51.578;7.734;2023-08-30T14:07:28;15.60;99.90
18153;DHT22;9202;51.578;7.734;2023-08-30T14:09:31;15.60;99.90
18153;DHT22;9202;51.578;7.734;2023-08-30T14:11:34;15.60;99.90
18153;DHT22;9202;51.578;7.734;2023-08-30T14:13:37;15.50;99.90
18153;DHT22;9202;51.578;7.734;2023-08-30T14:15:41;15.40;99.90
18153;DHT22;9202;51.578;7.734;2023-08-30T14:17:44;15.50;99.90
18153;DHT22;9202;51.578;7.734;2023-08-30T14:19:47;15.40;99.90
18153;DHT22;9202;51.578;7.734;2023-08-30T14:21:51;15.40;99.90
18153;DHT22;9202;51.578;7.734;2023-08-30T14:23:56;15.40;99.90
18153;DHT22;9202;51.578;7.734;2023-08-30T14:25:59;15.30;99.90
18153;DHT22;9202;51.578;7.734;2023-08-30T14:28:03;15.30;99.90
18153;DHT22;9202;51.578;7.734;2023-08-30T14:30:07;15.20;99.90
18153;DHT22;9202;51.578;7.734;2023-08-30T14:32:10;15.20;99.90
18153;DHT22;9202;51.578;7.734;2023-08-30T14:34:13;15.20;99.90
18153;DHT22;9202;51.578;7.734;2023-08-30T14:36:16;15.20;99.90
18153;DHT22;9202;51.578;7.734;2023-08-30T14:38:19;15.20;99.90
18153;DHT22;9202;51.578;7.734;2023-08-30T14:40:22;15.10;99.90
18153;DHT22;9202;51.578;7.734;2023-08-30T14:42:25;15.10;99.90